createdAt,value
2024-04-17T00:01:31.104Z,4.88
2024-04-17T00:04:00.792Z,5.00
2024-04-17T00:06:27.859Z,5.13
2024-04-17T00:08:57.418Z,5.22
2024-04-17T00:11:25.233Z,5.32
2024-04-17T00:13:54.913Z,5.65
2024-04-17T00:16:21.979Z,5.43
2024-04-17T00:18:54.215Z,5.35
2024-04-17T00:21:21.231Z,5.45
2024-04-17T00:23:50.788Z,5.45
2024-04-17T00:26:17.810Z,5.38
2024-04-17T00:28:47.420Z,4.82
2024-04-17T00:31:15.476Z,5.15
2024-04-17T00:33:45.304Z,5.57
2024-04-17T00:36:14.931Z,5.85
2024-04-17T00:38:44.519Z,5.55
2024-04-17T00:41:12.777Z,6.10
2024-04-17T00:43:42.381Z,6.30
2024-04-17T00:46:10.222Z,6.43
2024-04-17T00:48:39.826Z,5.60
2024-04-17T00:51:06.803Z,6.38
2024-04-17T00:53:39.232Z,6.30
2024-04-17T00:56:07.076Z,6.85
2024-04-17T00:58:37.102Z,7.07
2024-04-17T01:01:04.413Z,7.30
2024-04-17T01:03:34.283Z,8.65
2024-04-17T01:06:01.397Z,8.00
2024-04-17T01:08:30.994Z,9.15
2024-04-17T01:11:04.131Z,9.68
2024-04-17T01:13:33.985Z,7.70
2024-04-17T01:16:01.057Z,6.90
2024-04-17T01:18:30.701Z,5.60
2024-04-17T01:20:57.794Z,4.90
2024-04-17T01:23:27.401Z,4.50
2024-04-17T01:25:57.062Z,3.58
2024-04-17T01:28:26.834Z,3.70
2024-04-17T01:30:53.866Z,4.00
2024-04-17T01:33:23.509Z,3.50
2024-04-17T01:35:50.582Z,3.05
2024-04-17T01:38:20.178Z,3.92
2024-04-17T01:40:47.219Z,3.70
2024-04-17T01:43:19.486Z,3.25
2024-04-17T01:45:46.928Z,3.70
2024-04-17T01:48:16.624Z,3.20
2024-04-17T01:50:43.742Z,2.83
2024-04-17T01:53:13.403Z,2.78
2024-04-17T01:55:40.436Z,3.55
2024-04-17T01:58:10.063Z,3.15
2024-04-17T02:00:39.700Z,3.08
2024-04-17T02:03:10.727Z,3.30
2024-04-17T02:05:37.899Z,3.60
2024-04-17T02:08:08.115Z,3.40
2024-04-17T02:10:35.169Z,3.70
2024-04-17T02:13:04.783Z,4.05
2024-04-17T02:15:32.712Z,3.80
2024-04-17T02:18:05.012Z,4.45
2024-04-17T02:20:32.099Z,4.28
2024-04-17T02:23:01.713Z,4.68
2024-04-17T02:25:28.782Z,4.63
2024-04-17T02:27:58.374Z,4.82
2024-04-17T02:30:25.451Z,4.82
2024-04-17T02:32:55.144Z,4.90
2024-04-17T02:35:27.399Z,5.28
2024-04-17T02:37:54.499Z,8.82
2024-04-17T02:40:24.190Z,4.72
2024-04-17T02:42:51.226Z,4.75
2024-04-17T02:45:20.849Z,5.80
2024-04-17T02:47:48.003Z,5.78
2024-04-17T02:50:17.701Z,4.25
2024-04-17T02:52:47.376Z,5.88
2024-04-17T02:55:17.107Z,4.60
2024-04-17T02:57:44.152Z,4.78
2024-04-17T03:00:18.687Z,5.05
2024-04-17T03:02:45.726Z,5.18
2024-04-17T03:05:15.390Z,4.78
2024-04-17T03:07:45.647Z,4.90
2024-04-17T03:10:18.065Z,5.13
2024-04-17T03:12:45.079Z,5.40
2024-04-17T03:15:14.656Z,7.45
2024-04-17T03:17:41.748Z,5.45
2024-04-17T03:20:12.106Z,6.43
2024-04-17T03:22:39.173Z,4.80
2024-04-17T03:25:09.066Z,5.32
2024-04-17T03:27:38.686Z,4.72
2024-04-17T03:30:09.551Z,4.88
2024-04-17T03:32:36.551Z,5.10
2024-04-17T03:35:06.296Z,5.03
2024-04-17T03:37:35.897Z,9.65
2024-04-17T03:40:05.965Z,9.75
2024-04-17T03:42:35.739Z,6.50
2024-04-17T03:45:08.358Z,5.28
2024-04-17T03:47:40.393Z,5.35
2024-04-17T03:50:07.512Z,5.45
2024-04-17T03:52:37.134Z,6.18
2024-04-17T03:55:04.660Z,6.35
2024-04-17T03:57:34.363Z,6.20
2024-04-17T04:00:01.491Z,6.95
2024-04-17T04:02:33.747Z,6.85
2024-04-17T04:05:00.852Z,6.93
2024-04-17T04:07:30.490Z,8.77
2024-04-17T04:09:57.501Z,10.27
2024-04-17T04:12:27.338Z,14.93
2024-04-17T04:14:54.401Z,7.82
2024-04-17T04:17:24.097Z,7.28
2024-04-17T04:19:53.878Z,10.35
2024-04-17T04:22:23.643Z,9.88
2024-04-17T04:24:50.692Z,6.82
2024-04-17T04:27:20.296Z,5.75
2024-04-17T04:29:47.398Z,6.00
2024-04-17T04:32:17.023Z,5.90
2024-04-17T04:34:44.029Z,5.07
2024-04-17T04:37:16.233Z,6.05
2024-04-17T04:39:43.273Z,5.80
2024-04-17T04:42:12.910Z,4.40
2024-04-17T04:44:39.883Z,10.15
2024-04-17T04:47:09.598Z,4.88
2024-04-17T04:49:37.358Z,6.55
2024-04-17T04:52:07.243Z,9.52
2024-04-17T04:54:36.986Z,8.85
2024-04-17T04:57:06.923Z,6.50
2024-04-17T04:59:33.907Z,4.82
2024-04-17T05:02:03.591Z,6.88
2024-04-17T05:04:30.837Z,2.45
2024-04-17T05:07:00.535Z,9.60
2024-04-17T05:09:28.303Z,3.60
2024-04-17T05:12:00.578Z,4.15
2024-04-17T05:14:27.665Z,6.15
2024-04-17T05:16:57.401Z,5.78
2024-04-17T05:19:24.503Z,4.35
2024-04-17T05:21:54.239Z,8.32
2024-04-17T05:24:21.315Z,5.40
2024-04-17T05:26:50.881Z,7.32
2024-04-17T05:29:20.713Z,7.68
2024-04-17T05:31:50.359Z,4.63
2024-04-17T05:34:17.475Z,4.72
2024-04-17T05:36:47.063Z,4.47
2024-04-17T05:39:14.072Z,3.65
2024-04-17T05:41:43.646Z,5.53
2024-04-17T05:44:10.654Z,6.70
2024-04-17T05:46:43.026Z,8.95
2024-04-17T05:49:10.171Z,5.82
2024-04-17T05:51:39.753Z,4.35
2024-04-17T05:54:06.681Z,8.63
2024-04-17T05:56:36.274Z,5.57
2024-04-17T05:59:03.282Z,5.43
2024-04-17T06:01:32.890Z,5.85
2024-04-17T06:04:02.544Z,5.72
2024-04-17T06:06:32.145Z,4.93
2024-04-17T06:08:59.128Z,7.25
2024-04-17T06:11:28.882Z,4.97
2024-04-17T06:13:56.845Z,6.85
2024-04-17T06:16:26.482Z,8.02
2024-04-17T06:18:53.552Z,9.02
2024-04-17T06:21:25.912Z,7.50
2024-04-17T06:23:52.889Z,4.28
2024-04-17T06:26:22.545Z,10.65
2024-04-17T06:28:49.591Z,7.85
2024-04-17T06:31:19.271Z,9.80
2024-04-17T06:33:46.310Z,5.57
2024-04-17T06:36:16.205Z,8.40
2024-04-17T06:38:45.815Z,7.38
2024-04-17T06:41:15.602Z,7.95
2024-04-17T06:43:42.652Z,6.47
2024-04-17T06:46:12.338Z,9.82
2024-04-17T06:48:39.422Z,10.70
2024-04-17T06:51:09.064Z,6.20
2024-04-17T06:53:38.479Z,7.88
2024-04-17T06:56:12.126Z,9.18
2024-04-17T06:58:39.576Z,5.20
2024-04-17T07:01:09.226Z,8.43
2024-04-17T07:03:36.492Z,9.68
2024-04-17T07:06:06.260Z,8.90
2024-04-17T07:08:33.274Z,11.07
2024-04-17T07:11:02.890Z,10.02
2024-04-17T07:13:35.557Z,3.88
2024-04-17T07:16:02.571Z,8.68
2024-04-17T07:18:32.208Z,9.50
2024-04-17T07:20:59.265Z,8.40
2024-04-17T07:23:28.900Z,8.68
2024-04-17T07:25:55.989Z,7.85
2024-04-17T07:28:25.787Z,4.30
2024-04-17T07:30:55.431Z,5.10
2024-04-17T07:33:25.203Z,7.20
2024-04-17T07:35:58.544Z,6.32
2024-04-17T07:38:29.728Z,6.20
2024-04-17T07:40:57.903Z,7.47
2024-04-17T07:43:31.714Z,5.63
2024-04-17T07:46:01.668Z,4.80
2024-04-17T07:48:31.659Z,4.78
2024-04-17T07:50:58.732Z,5.55
2024-04-17T07:53:28.528Z,4.88
2024-04-17T07:55:57.328Z,4.80
2024-04-17T07:58:26.982Z,5.63
2024-04-17T08:00:54.065Z,5.32
2024-04-17T08:03:26.377Z,2.63
2024-04-17T08:05:53.456Z,5.53
2024-04-17T08:08:23.092Z,7.15
2024-04-17T08:10:50.198Z,2.60
2024-04-17T08:13:19.874Z,2.95
2024-04-17T08:15:50.510Z,4.68
2024-04-17T08:18:20.220Z,3.80
2024-04-17T08:20:55.806Z,10.30
2024-04-17T08:23:26.962Z,4.18
2024-04-17T08:25:55.474Z,3.05
2024-04-17T08:28:25.255Z,4.80
2024-04-17T08:30:54.157Z,4.47
2024-04-17T08:33:24.230Z,3.78
2024-04-17T08:35:54.032Z,5.10
2024-04-17T08:38:23.754Z,6.63
2024-04-17T08:40:52.366Z,3.92
2024-04-17T08:43:28.070Z,1.75
2024-04-17T08:45:55.858Z,2.25
2024-04-17T08:48:27.540Z,7.40
2024-04-17T08:50:57.470Z,4.72
2024-04-17T08:53:27.262Z,6.60
2024-04-17T08:55:54.333Z,4.20
2024-04-17T08:58:23.935Z,2.50
2024-04-17T09:00:51.976Z,6.55
2024-04-17T09:03:25.484Z,2.72
2024-04-17T09:05:57.615Z,4.35
2024-04-17T09:08:27.950Z,5.53
2024-04-17T09:10:56.152Z,3.33
2024-04-17T09:13:26.098Z,5.85
2024-04-17T09:15:53.842Z,6.20
2024-04-17T09:18:28.257Z,3.95
2024-04-17T09:20:58.466Z,3.90
2024-04-17T09:23:28.148Z,3.80
2024-04-17T09:25:56.068Z,1.13
2024-04-17T09:28:26.240Z,3.38
2024-04-17T09:30:53.360Z,1.92
2024-04-17T09:33:23.101Z,5.10
2024-04-17T09:35:52.699Z,1.40
2024-04-17T09:38:26.433Z,2.05
2024-04-17T09:40:53.586Z,7.90
2024-04-17T09:43:29.646Z,3.85
2024-04-17T09:45:59.763Z,4.22
2024-04-17T09:48:29.700Z,4.43
2024-04-17T09:51:00.102Z,2.85
2024-04-17T09:53:37.905Z,3.05
2024-04-17T09:56:08.110Z,2.17
2024-04-17T09:58:38.591Z,4.28
2024-04-17T10:01:07.714Z,2.72
2024-04-17T10:03:37.976Z,2.95
2024-04-17T10:06:05.591Z,4.38
2024-04-17T10:08:39.085Z,1.80
2024-04-17T10:11:06.240Z,2.03
2024-04-17T10:13:36.206Z,5.00
2024-04-17T10:16:05.059Z,1.70
2024-04-17T10:18:34.699Z,6.05
2024-04-17T10:21:01.793Z,5.97
2024-04-17T10:23:31.414Z,1.48
2024-04-17T10:26:01.154Z,4.10
2024-04-17T10:28:30.862Z,5.75
2024-04-17T10:30:57.996Z,3.03
2024-04-17T10:33:31.004Z,2.50
2024-04-17T10:35:58.464Z,3.85
2024-04-17T10:38:32.121Z,2.15
2024-04-17T10:41:05.195Z,2.80
2024-04-17T10:43:36.402Z,3.22
2024-04-17T10:46:06.287Z,3.58
2024-04-17T10:48:45.126Z,2.00
2024-04-17T10:51:14.012Z,3.30
2024-04-17T10:53:44.178Z,3.03
2024-04-17T10:56:15.822Z,4.43
2024-04-17T10:58:46.049Z,7.05
2024-04-17T11:01:13.475Z,5.65
2024-04-17T11:03:43.752Z,3.88
2024-04-17T11:06:11.725Z,3.88
2024-04-17T11:08:54.573Z,4.13
2024-04-17T11:11:28.453Z,7.32
2024-04-17T11:13:58.214Z,5.20
2024-04-17T11:16:25.387Z,3.38
2024-04-17T11:18:55.105Z,1.67
2024-04-17T11:21:23.311Z,3.50
2024-04-17T11:23:52.982Z,3.33
2024-04-17T11:26:20.088Z,3.38
2024-04-17T11:28:52.655Z,2.00
2024-04-17T11:31:19.880Z,4.68
2024-04-17T11:33:49.555Z,3.65
2024-04-17T11:36:16.900Z,2.55
2024-04-17T11:38:46.709Z,4.28
2024-04-17T11:41:15.494Z,2.17
2024-04-17T11:43:46.302Z,2.28
2024-04-17T11:46:16.588Z,4.63
2024-04-17T11:48:46.457Z,2.67
2024-04-17T11:51:13.502Z,4.20
2024-04-17T11:53:43.070Z,4.32
2024-04-17T11:56:10.129Z,6.82
2024-04-17T11:58:40.000Z,6.28
2024-04-17T12:01:07.112Z,3.45
2024-04-17T12:03:39.769Z,3.83
2024-04-17T12:06:07.878Z,4.18
2024-04-17T12:08:37.691Z,5.20
2024-04-17T12:11:05.172Z,4.50
2024-04-17T12:13:35.247Z,2.25
2024-04-17T12:16:02.390Z,7.13
2024-04-17T12:18:32.229Z,4.55
2024-04-17T12:21:01.809Z,4.00
2024-04-17T12:23:31.666Z,4.35
2024-04-17T12:26:16.995Z,4.50
2024-04-17T12:28:46.648Z,2.75
2024-04-17T12:31:16.231Z,5.63
2024-04-17T12:33:45.954Z,4.28
2024-04-17T12:36:18.217Z,4.53
2024-04-17T12:38:47.838Z,4.43
2024-04-17T12:41:17.503Z,4.00
2024-04-17T12:43:48.051Z,3.10
2024-04-17T12:46:18.843Z,2.97
2024-04-17T12:48:49.713Z,3.22
2024-04-17T12:51:21.886Z,4.50
2024-04-17T12:53:51.450Z,4.00
2024-04-17T12:56:21.037Z,4.55
2024-04-17T12:58:48.052Z,2.38
2024-04-17T13:01:17.672Z,3.17
2024-04-17T13:03:44.825Z,2.25
2024-04-17T13:06:15.117Z,4.10
2024-04-17T13:08:44.711Z,2.33
2024-04-17T13:11:15.664Z,1.00
2024-04-17T13:13:43.160Z,1.58
2024-04-17T13:16:12.867Z,0.70
2024-04-17T13:18:40.852Z,3.20
2024-04-17T13:21:10.514Z,1.33
2024-04-17T13:23:37.660Z,0.50
2024-04-17T13:26:10.143Z,1.50
2024-04-17T13:28:37.252Z,0.73
2024-04-17T13:31:08.070Z,1.02
2024-04-17T13:33:36.229Z,0.73
2024-04-17T13:36:06.963Z,1.05
2024-04-17T13:38:34.068Z,1.10
2024-04-17T13:41:04.680Z,2.53
2024-04-17T13:43:34.678Z,1.27
2024-04-17T13:46:08.784Z,0.93
2024-04-17T13:48:36.097Z,1.92
2024-04-17T13:51:06.551Z,2.28
2024-04-17T13:53:33.594Z,6.45
2024-04-17T13:56:03.573Z,0.80
2024-04-17T13:58:34.039Z,0.68
2024-04-17T14:01:06.687Z,0.82
2024-04-17T14:03:33.798Z,0.95
2024-04-17T14:06:03.724Z,4.85
2024-04-17T14:08:30.753Z,0.60
2024-04-17T14:11:03.597Z,2.20
2024-04-17T14:13:34.807Z,0.50
2024-04-17T14:16:07.255Z,0.98
2024-04-17T14:18:34.472Z,0.82
2024-04-17T14:21:07.664Z,0.35
2024-04-17T14:23:34.949Z,0.30
2024-04-17T14:26:05.139Z,0.40
2024-04-17T14:28:34.808Z,2.13
2024-04-17T14:31:05.019Z,0.40
2024-04-17T14:33:33.142Z,0.93
2024-04-17T14:36:06.247Z,2.47
2024-04-17T14:38:33.557Z,0.50
2024-04-17T14:41:04.892Z,1.08
2024-04-17T14:43:36.524Z,0.47
2024-04-17T14:46:07.257Z,1.02
2024-04-17T14:48:35.234Z,0.30
2024-04-17T14:51:06.458Z,0.30
2024-04-17T14:53:34.262Z,0.50
2024-04-17T14:56:04.679Z,0.75
2024-04-17T14:58:35.239Z,0.85
2024-04-17T15:01:07.812Z,0.60
2024-04-17T15:03:36.175Z,1.33
2024-04-17T15:06:12.237Z,0.73
2024-04-17T15:08:41.297Z,2.38
2024-04-17T15:11:11.962Z,0.80
2024-04-17T15:13:42.972Z,20.67
2024-04-17T15:16:13.396Z,2.85
2024-04-17T15:18:40.846Z,0.55
2024-04-17T15:21:11.179Z,2.47
2024-04-17T15:23:39.444Z,0.77
2024-04-17T15:26:09.793Z,0.85
2024-04-17T15:28:37.185Z,1.00
2024-04-17T15:31:13.293Z,2.53
2024-04-17T15:33:41.150Z,0.88
2024-04-17T15:36:11.243Z,0.70
2024-04-17T15:38:38.295Z,2.55
2024-04-17T15:41:08.593Z,2.38
2024-04-17T15:43:36.080Z,2.17
2024-04-17T15:46:13.364Z,1.73
2024-04-17T15:48:40.650Z,1.77
2024-04-17T15:51:11.017Z,1.45
2024-04-17T15:53:38.595Z,2.42
2024-04-17T15:56:15.518Z,4.15
2024-04-17T15:58:42.556Z,1.23
2024-04-17T16:01:15.748Z,1.30
2024-04-17T16:03:43.294Z,0.77
2024-04-17T16:06:13.740Z,1.88
2024-04-17T16:08:40.929Z,1.73
2024-04-17T16:11:10.685Z,1.73
2024-04-17T16:13:38.334Z,1.20
2024-04-17T16:16:10.330Z,1.77
2024-04-17T16:18:40.336Z,2.58
2024-04-17T16:21:13.472Z,0.98
2024-04-17T16:23:40.545Z,1.02
2024-04-17T16:26:14.316Z,1.38
2024-04-17T16:28:46.824Z,1.05
2024-04-17T16:31:14.155Z,1.50
2024-04-17T16:33:47.333Z,1.42
2024-04-17T16:36:14.647Z,1.05
2024-04-17T16:38:44.287Z,1.00
2024-04-17T16:41:11.695Z,2.78
2024-04-17T16:43:41.422Z,1.83
2024-04-17T16:46:08.856Z,2.03
2024-04-17T16:48:40.664Z,1.52
2024-04-17T16:51:11.621Z,3.92
2024-04-17T16:53:41.644Z,2.47
2024-04-17T16:56:09.023Z,2.20
2024-04-17T16:58:41.087Z,2.30
2024-04-17T17:01:10.997Z,1.50
2024-04-17T17:03:38.516Z,7.30
2024-04-17T17:06:09.412Z,8.93
2024-04-17T17:08:39.096Z,6.50
2024-04-17T17:11:09.034Z,4.55
2024-04-17T17:13:36.376Z,2.08
2024-04-17T17:16:07.232Z,5.75
2024-04-17T17:18:35.020Z,1.60
2024-04-17T17:21:08.029Z,3.22
2024-04-17T17:23:35.213Z,1.60
2024-04-17T17:26:13.632Z,1.90
2024-04-17T17:28:41.485Z,2.20
2024-04-17T17:31:11.506Z,2.78
2024-04-17T17:33:38.708Z,1.80
2024-04-17T17:36:14.139Z,3.97
2024-04-17T17:38:41.766Z,1.52
2024-04-17T17:41:14.752Z,2.47
2024-04-17T17:43:43.591Z,2.72
2024-04-17T17:46:13.685Z,1.70
2024-04-17T17:48:42.227Z,3.35
2024-04-17T17:51:12.094Z,2.80
2024-04-17T17:53:40.388Z,1.85
2024-04-17T17:56:13.281Z,1.30
2024-04-17T17:58:43.581Z,2.92
2024-04-17T18:01:17.240Z,2.00
2024-04-17T18:03:46.798Z,1.85
2024-04-17T18:06:16.652Z,1.95
2024-04-17T18:08:43.778Z,2.00
2024-04-17T18:11:19.159Z,4.35
2024-04-17T18:13:46.450Z,0.85
2024-04-17T18:16:25.636Z,2.10
2024-04-17T18:19:00.097Z,2.83
2024-04-17T18:21:29.992Z,1.45
2024-04-17T18:23:57.508Z,3.45
2024-04-17T18:26:30.203Z,3.08
2024-04-17T18:28:57.438Z,2.95
2024-04-17T18:31:27.053Z,3.80
2024-04-17T18:33:54.407Z,3.63
2024-04-17T18:36:29.349Z,2.78
2024-04-17T18:38:57.384Z,3.53
2024-04-17T18:41:29.675Z,3.83
2024-04-17T18:43:57.542Z,3.47
2024-04-17T18:46:27.834Z,6.03
2024-04-17T18:48:56.029Z,3.95
2024-04-17T18:51:25.917Z,4.20
2024-04-17T18:53:53.233Z,5.20
2024-04-17T18:56:23.858Z,4.90
2024-04-17T18:58:53.558Z,1.90
2024-04-17T19:01:24.362Z,4.13
2024-04-17T19:03:52.158Z,8.88
2024-04-17T19:06:22.303Z,4.18
2024-04-17T19:08:50.374Z,3.97
2024-04-17T19:11:20.301Z,4.13
2024-04-17T19:13:47.460Z,5.30
2024-04-17T19:16:21.149Z,1.58
2024-04-17T19:18:49.384Z,2.72
2024-04-17T19:21:19.502Z,5.53
2024-04-17T19:23:46.971Z,2.22
2024-04-17T19:26:17.058Z,2.05
2024-04-17T19:28:44.811Z,1.83
2024-04-17T19:31:14.765Z,3.55
2024-04-17T19:33:48.727Z,2.35
2024-04-17T19:36:19.073Z,2.75
2024-04-17T19:38:48.485Z,2.65
2024-04-17T19:41:18.162Z,2.80
2024-04-17T19:43:46.276Z,1.67
2024-04-17T19:46:16.383Z,3.80
2024-04-17T19:48:46.428Z,2.30
2024-04-17T19:51:17.837Z,2.10
2024-04-17T19:53:45.149Z,1.42
2024-04-17T19:56:15.567Z,1.60
2024-04-17T19:58:42.649Z,1.60
2024-04-17T20:01:13.868Z,1.90
2024-04-17T20:03:41.502Z,1.92
2024-04-17T20:06:14.262Z,1.00
2024-04-17T20:08:42.070Z,3.92
2024-04-17T20:11:12.795Z,1.13
2024-04-17T20:13:40.092Z,1.27
2024-04-17T20:16:11.029Z,1.92
2024-04-17T20:18:38.419Z,2.13
2024-04-17T20:21:09.645Z,2.63
2024-04-17T20:23:40.099Z,2.10
2024-04-17T20:26:11.264Z,1.55
2024-04-17T20:28:44.399Z,1.50
2024-04-17T20:31:21.462Z,1.17
2024-04-17T20:33:48.707Z,1.10
2024-04-17T20:36:19.379Z,1.60
2024-04-17T20:38:49.795Z,2.55
2024-04-17T20:41:19.467Z,2.72
2024-04-17T20:43:46.489Z,1.50
2024-04-17T20:46:16.908Z,3.80
2024-04-17T20:48:44.595Z,1.60
2024-04-17T20:51:14.574Z,1.20
2024-04-17T20:53:42.166Z,2.20
2024-04-17T20:56:14.587Z,1.52
2024-04-17T20:58:41.599Z,3.60
2024-04-17T21:01:12.042Z,1.80
2024-04-17T21:03:39.591Z,3.00
2024-04-17T21:06:10.452Z,1.67
2024-04-17T21:08:37.803Z,3.17
2024-04-17T21:11:08.498Z,1.60
2024-04-17T21:13:38.403Z,1.85
2024-04-17T21:16:09.410Z,4.63
2024-04-17T21:18:37.104Z,3.05
2024-04-17T21:21:07.187Z,2.58
2024-04-17T21:23:34.984Z,3.80
2024-04-17T21:26:04.612Z,3.42
2024-04-17T21:28:31.975Z,4.05
2024-04-17T21:31:04.262Z,1.70
2024-04-17T21:33:31.386Z,1.52
2024-04-17T21:36:01.018Z,3.22
2024-04-17T21:38:28.157Z,1.20
2024-04-17T21:40:58.814Z,3.38
2024-04-17T21:43:26.132Z,2.15
2024-04-17T21:45:56.118Z,3.28
2024-04-17T21:48:25.797Z,1.27
2024-04-17T21:50:56.745Z,2.30
2024-04-17T21:53:23.905Z,4.25
2024-04-17T21:56:00.420Z,2.25
2024-04-17T21:58:27.453Z,1.40
2024-04-17T22:00:58.331Z,1.30
2024-04-17T22:03:28.403Z,1.23
2024-04-17T22:06:00.523Z,2.50
2024-04-17T22:08:28.730Z,1.52
2024-04-17T22:10:59.403Z,2.40
2024-04-17T22:13:26.501Z,1.85
2024-04-17T22:15:56.157Z,1.48
2024-04-17T22:18:23.205Z,4.32
2024-04-17T22:20:55.763Z,1.85
2024-04-17T22:23:23.002Z,1.55
2024-04-17T22:25:52.735Z,1.88
2024-04-17T22:28:19.732Z,3.72
2024-04-17T22:30:49.420Z,1.92
2024-04-17T22:33:16.537Z,5.07
2024-04-17T22:35:46.272Z,2.92
2024-04-17T22:38:16.034Z,4.03
2024-04-17T22:40:45.867Z,4.75
2024-04-17T22:43:12.891Z,2.88
2024-04-17T22:45:42.582Z,3.92
2024-04-17T22:48:09.706Z,3.20
2024-04-17T22:50:39.351Z,4.00
2024-04-17T22:53:06.386Z,4.53
2024-04-17T22:55:38.586Z,4.45
2024-04-17T22:58:05.610Z,3.67
2024-04-17T23:00:35.222Z,5.05
2024-04-17T23:03:02.279Z,5.47
2024-04-17T23:05:32.146Z,4.70
2024-04-17T23:07:59.229Z,4.07
2024-04-17T23:10:28.848Z,6.40
2024-04-17T23:12:59.273Z,5.15
2024-04-17T23:15:29.124Z,3.85
2024-04-17T23:17:56.243Z,4.00
2024-04-17T23:20:25.925Z,4.85
2024-04-17T23:22:52.953Z,5.05
2024-04-17T23:25:22.580Z,7.82
2024-04-17T23:27:51.158Z,3.90
2024-04-17T23:30:23.615Z,4.85
2024-04-17T23:32:51.606Z,7.45
2024-04-17T23:35:21.373Z,3.85
2024-04-17T23:37:48.385Z,4.10
2024-04-17T23:40:18.037Z,5.43
2024-04-17T23:42:45.170Z,6.25
2024-04-17T23:45:14.937Z,4.88
2024-04-17T23:47:44.642Z,6.60
2024-04-17T23:50:14.291Z,5.70
2024-04-17T23:52:41.284Z,8.77
2024-04-17T23:55:10.885Z,4.90
2024-04-17T23:57:37.888Z,5.88
